Time;durP1;ratioP1;P1;durP2;ratioP2;P2;SDS_P1;SDS_P2;PMS_P1;PMS_P2;Temp;Humidity;BMP_temperature;BMP_pressure;BME280_temperature;BME280_humidity;BME280_pressure;Samples;Min_cycle;Max_cycle;Signal;HPM_P1;HPM_P2
2022/04/21 00:00:34;;;;;;;9.85;5.85;;;8.30;99.90;;;;;;5089206;28;20032;-43
2022/04/21 00:03:01;;;;;;;11.05;7.03;;;8.20;99.90;;;;;;5088500;28;20480;-40
2022/04/21 00:05:27;;;;;;;10.80;5.95;;;8.20;99.90;;;;;;5087514;28;20526;-41
2022/04/21 00:07:53;;;;;;;8.40;6.03;;;8.10;99.90;;;;;;5089281;28;20024;-40
2022/04/21 00:10:19;;;;;;;7.75;5.57;;;8.10;99.90;;;;;;5089189;28;20186;-42
2022/04/21 00:12:45;;;;;;;11.65;6.70;;;8.00;99.90;;;;;;5088454;28;20023;-41
2022/04/21 00:15:11;;;;;;;9.77;6.90;;;7.90;99.90;;;;;;5089165;28;20020;-41
2022/04/21 00:17:37;;;;;;;8.15;6.50;;;7.90;99.90;;;;;;5089148;28;20027;-43
2022/04/21 00:20:02;;;;;;;11.43;6.25;;;7.90;99.90;;;;;;5078517;28;20032;-41
2022/04/21 00:25:29;;;;;;;8.07;5.70;;;7.90;99.90;;;;;;5065577;28;20024;-41
2022/04/21 00:27:55;;;;;;;8.85;6.50;;;7.90;99.90;;;;;;5078887;28;20392;-41
2022/04/21 00:30:21;;;;;;;10.07;7.03;;;7.80;99.90;;;;;;5088985;28;20020;-41
2022/04/21 00:32:46;;;;;;;11.18;6.45;;;7.80;99.90;;;;;;5088572;28;20028;-40
2022/04/21 00:35:13;;;;;;;13.15;6.25;;;7.70;99.90;;;;;;5088315;28;20428;-41
2022/04/21 00:37:55;;;;;;;12.07;7.03;;;7.70;99.90;;;;;;5088930;28;20032;-40
2022/04/21 00:40:26;;;;;;;12.00;7.13;;;7.70;99.90;;;;;;5088870;28;20047;-42
2022/04/21 00:42:52;;;;;;;13.48;7.07;;;7.60;99.90;;;;;;5088371;28;20470;-42
2022/04/21 00:45:17;;;;;;;9.98;6.53;;;7.70;99.90;;;;;;5089049;28;20032;-42
2022/04/21 00:47:45;;;;;;;8.82;6.22;;;7.70;99.90;;;;;;5089093;28;20028;-41
2022/04/21 00:50:22;;;;;;;14.45;6.93;;;7.70;99.90;;;;;;5075948;28;20040;-43
2022/04/21 00:52:49;;;;;;;12.15;7.07;;;7.70;99.90;;;;;;5079702;28;20505;-42
2022/04/21 00:55:15;;;;;;;18.15;7.55;;;7.60;99.90;;;;;;5088737;28;20521;-41
2022/04/21 00:57:42;;;;;;;14.57;7.25;;;7.60;99.90;;;;;;5088555;28;20036;-41
2022/04/21 01:00:09;;;;;;;11.68;6.78;;;7.70;99.90;;;;;;5087082;28;20497;-41
2022/04/21 01:02:46;;;;;;;10.93;6.95;;;7.70;99.90;;;;;;5087758;28;20485;-43
2022/04/21 01:05:33;;;;;;;13.43;7.15;;;7.60;99.90;;;;;;5087079;28;20036;-42
2022/04/21 01:08:06;;;;;;;9.90;6.50;;;7.60;99.90;;;;;;5088515;28;20419;-42
2022/04/21 01:10:34;;;;;;;12.55;6.53;;;7.60;99.90;;;;;;5088427;28;20024;-41
2022/04/21 01:13:01;;;;;;;8.15;6.05;;;7.60;99.90;;;;;;5087807;28;20023;-42
2022/04/21 01:15:27;;;;;;;10.80;6.50;;;7.60;99.90;;;;;;5088561;28;20020;-42
2022/04/21 01:17:53;;;;;;;12.23;7.22;;;7.60;99.90;;;;;;5088326;28;20108;-41
2022/04/21 01:20:20;;;;;;;10.45;7.03;;;7.60;99.90;;;;;;5078387;28;20404;-41
2022/04/21 01:22:46;;;;;;;8.57;6.43;;;7.50;99.90;;;;;;5079339;28;20031;-42
2022/04/21 01:25:12;;;;;;;11.18;7.13;;;7.50;99.90;;;;;;5088177;28;20028;-40
2022/04/21 01:27:38;;;;;;;9.80;6.30;;;7.40;99.90;;;;;;5088152;28;20020;-41
2022/04/21 01:30:06;;;;;;;11.27;7.28;;;7.40;99.90;;;;;;5088078;28;20465;-40
2022/04/21 01:32:35;;;;;;;8.85;6.43;;;7.40;99.90;;;;;;5087543;28;20024;-40
2022/04/21 01:35:02;;;;;;;8.43;6.30;;;7.30;99.90;;;;;;5087956;28;20024;-40
2022/04/21 01:42:56;;;;;;;7.95;5.57;;;7.30;99.90;;;;;;5091657;28;20043;-42
2022/04/21 01:45:21;;;;;;;8.02;5.43;;;7.20;99.90;;;;;;5092228;28;20040;-41
2022/04/21 01:47:47;;;;;;;8.77;5.65;;;7.20;99.90;;;;;;5092142;28;20020;-41
2022/04/21 01:50:13;;;;;;;6.53;5.15;;;7.20;99.90;;;;;;5079766;28;20017;-41
2022/04/21 01:52:38;;;;;;;8.90;5.22;;;7.10;99.90;;;;;;5082961;28;20012;-41
2022/04/21 01:55:06;;;;;;;8.25;5.00;;;7.10;99.90;;;;;;5091992;28;20028;-41
2022/04/21 01:57:32;;;;;;;7.82;4.60;;;7.10;99.90;;;;;;5091744;28;20035;-41
2022/04/21 01:59:57;;;;;;;8.13;4.68;;;7.10;99.90;;;;;;5091868;28;20182;-41
2022/04/21 02:02:23;;;;;;;9.27;5.22;;;7.10;99.90;;;;;;5090925;28;20032;-42
2022/04/21 02:04:48;;;;;;;8.68;5.20;;;7.00;99.90;;;;;;5091598;28;20016;-42
2022/04/21 02:07:15;;;;;;;7.32;4.95;;;7.00;99.90;;;;;;5091456;28;20073;-41
2022/04/21 02:09:40;;;;;;;8.50;5.10;;;7.00;99.90;;;;;;5090469;28;20065;-41
2022/04/21 02:12:06;;;;;;;8.50;5.15;;;7.00;99.90;;;;;;5090883;28;20016;-41
2022/04/21 02:14:33;;;;;;;8.55;4.40;;;7.00;99.90;;;;;;5091550;28;20027;-41
2022/04/21 02:16:59;;;;;;;7.97;4.60;;;7.10;99.90;;;;;;5091539;28;20024;-41
2022/04/21 02:19:25;;;;;;;6.78;4.68;;;7.10;99.90;;;;;;5091562;28;20028;-41
2022/04/21 02:21:50;;;;;;;11.20;4.90;;;7.10;99.90;;;;;;5075277;28;20020;-41
2022/04/21 02:24:16;;;;;;;8.43;4.90;;;7.10;99.90;;;;;;5066675;28;20048;-42
2022/04/21 02:26:41;;;;;;;6.80;4.60;;;7.20;99.90;;;;;;5060934;28;20112;-41
2022/04/21 02:29:06;;;;;;;7.82;4.57;;;7.20;99.90;;;;;;5059978;28;20073;-41
2022/04/21 02:31:32;;;;;;;6.88;4.80;;;7.20;99.90;;;;;;5061075;28;20044;-41
2022/04/21 02:33:57;;;;;;;10.88;4.95;;;7.20;99.90;;;;;;5059788;28;20043;-41
2022/04/21 02:36:23;;;;;;;7.07;4.30;;;7.20;99.90;;;;;;5060037;28;20024;-41
2022/04/21 02:38:48;;;;;;;5.63;4.30;;;7.20;99.90;;;;;;5058337;28;20343;-42
2022/04/21 02:41:15;;;;;;;8.32;4.50;;;7.20;99.90;;;;;;5061193;28;20104;-41
2022/04/21 02:43:40;;;;;;;7.72;4.72;;;7.20;99.90;;;;;;5059369;28;20018;-41
2022/04/21 02:46:05;;;;;;;7.47;4.35;;;7.20;99.90;;;;;;5059660;28;20035;-43
2022/04/21 02:48:31;;;;;;;8.85;4.68;;;7.10;99.90;;;;;;5059650;28;20033;-42
2022/04/21 02:50:57;;;;;;;8.82;4.25;;;7.10;99.90;;;;;;5058661;28;20021;-41
2022/04/21 02:57:19;;;;;;;8.73;4.85;;;7.20;99.90;;;;;;5062474;28;20024;-42
2022/04/21 02:58:52;;;;;;;6.10;4.00;;;7.20;99.90;;;;;;5061577;28;20039;-41
2022/04/21 03:01:17;;;;;;;5.78;3.95;;;7.30;99.90;;;;;;5058101;28;20025;-42
2022/04/21 03:03:43;;;;;;;8.35;4.32;;;7.30;99.90;;;;;;5059211;28;20021;-41
2022/04/21 03:06:11;;;;;;;6.10;4.35;;;7.30;99.90;;;;;;5060304;28;20507;-41
2022/04/21 03:08:37;;;;;;;6.82;4.20;;;7.30;99.90;;;;;;5059112;28;20489;-41
2022/04/21 03:11:02;;;;;;;5.38;4.32;;;7.30;99.90;;;;;;5059824;28;20047;-42
2022/04/21 03:13:28;;;;;;;6.35;4.22;;;7.30;99.90;;;;;;5060233;28;20025;-42
2022/04/21 03:15:53;;;;;;;5.80;4.18;;;7.30;99.90;;;;;;5058651;28;20501;-41
2022/04/21 03:18:19;;;;;;;7.45;4.55;;;7.30;99.90;;;;;;5060242;28;20031;-41
2022/04/21 03:26:17;;;;;;;4.97;4.40;;;7.40;99.90;;;;;;5058281;28;20043;-41
2022/04/21 03:28:46;;;;;;;6.73;4.33;;;7.40;99.90;;;;;;5059369;28;20543;-42
2022/04/21 03:31:11;;;;;;;6.15;4.07;;;7.40;99.90;;;;;;5060147;28;20024;-42
2022/04/21 03:33:37;;;;;;;7.72;4.35;;;7.40;99.90;;;;;;5057849;28;20147;-42
2022/04/21 03:36:03;;;;;;;7.32;4.38;;;7.30;99.90;;;;;;5059045;28;20033;-41
2022/04/21 03:38:29;;;;;;;8.73;3.75;;;7.30;99.90;;;;;;5060195;28;20032;-42
2022/04/21 03:40:56;;;;;;;6.57;4.35;;;7.30;99.90;;;;;;5058027;28;20407;-43
2022/04/21 03:43:22;;;;;;;7.38;4.43;;;7.30;99.90;;;;;;5058680;28;20017;-42
2022/04/21 03:45:47;;;;;;;6.50;4.20;;;7.30;99.90;;;;;;5059560;28;20258;-42
2022/04/21 03:48:13;;;;;;;8.32;4.78;;;7.30;99.90;;;;;;5056806;28;20021;-41
2022/04/21 03:50:39;;;;;;;7.15;4.65;;;7.40;99.90;;;;;;5057054;28;20458;-41
2022/04/21 03:53:05;;;;;;;9.43;4.70;;;7.30;99.90;;;;;;5061766;28;20020;-41
2022/04/21 03:55:31;;;;;;;7.43;4.30;;;7.40;99.90;;;;;;5066638;28;20020;-42
2022/04/21 03:57:57;;;;;;;5.45;4.18;;;7.40;99.90;;;;;;5069859;28;20381;-42
2022/04/21 04:00:23;;;;;;;6.85;4.15;;;7.30;99.90;;;;;;5068521;28;20029;-42
2022/04/21 04:02:48;;;;;;;4.93;3.97;;;7.30;99.90;;;;;;5068841;28;20017;-42
2022/04/21 04:05:14;;;;;;;7.25;3.95;;;7.30;99.90;;;;;;5069412;28;20025;-42
2022/04/21 04:13:09;;;;;;;7.32;4.07;;;7.30;99.90;;;;;;5068878;28;20417;-42
2022/04/21 04:15:34;;;;;;;8.30;4.43;;;7.30;99.90;;;;;;5067680;28;20048;-41
2022/04/21 04:18:00;;;;;;;5.60;4.47;;;7.30;99.90;;;;;;5069074;28;20032;-41
2022/04/21 04:20:25;;;;;;;5.68;4.07;;;7.30;99.90;;;;;;5062828;28;20028;-41
2022/04/21 04:22:51;;;;;;;8.77;4.30;;;7.40;99.90;;;;;;5060827;28;20328;-41
2022/04/21 04:25:17;;;;;;;5.93;4.43;;;7.30;99.90;;;;;;5059483;28;20033;-41
2022/04/21 04:27:42;;;;;;;7.85;3.97;;;7.40;99.90;;;;;;5056895;28;20446;-42
2022/04/21 04:30:09;;;;;;;7.82;4.35;;;7.40;99.90;;;;;;5057983;28;20442;-42
2022/04/21 04:32:35;;;;;;;6.75;4.43;;;7.40;99.90;;;;;;5057432;28;20371;-41
2022/04/21 04:35:01;;;;;;;5.85;4.35;;;7.40;99.90;;;;;;5057880;28;20021;-42
2022/04/21 04:37:27;;;;;;;8.02;4.38;;;7.40;99.90;;;;;;5057824;28;20035;-42
2022/04/21 04:39:55;;;;;;;9.23;4.25;;;7.40;99.90;;;;;;5055682;28;20184;-42
2022/04/21 04:42:22;;;;;;;7.43;4.40;;;7.40;99.90;;;;;;5056087;28;20573;-41
2022/04/21 04:44:49;;;;;;;18.95;4.72;;;7.50;99.90;;;;;;5059461;28;20028;-42
2022/04/21 04:47:15;;;;;;;10.15;4.82;;;7.50;99.90;;;;;;5057020;28;20021;-42
2022/04/21 04:49:42;;;;;;;7.97;4.38;;;7.50;99.90;;;;;;5048946;28;20025;-41
2022/04/21 04:52:07;;;;;;;8.60;4.57;;;7.50;99.90;;;;;;5072018;28;20024;-42
2022/04/21 04:54:33;;;;;;;7.53;4.43;;;7.50;99.90;;;;;;5084286;28;20029;-41
2022/04/21 04:56:59;;;;;;;9.45;4.15;;;7.60;99.90;;;;;;5068615;28;20238;-42
2022/04/21 04:59:24;;;;;;;6.55;4.13;;;7.70;99.90;;;;;;5067169;28;20119;-40
2022/04/21 05:01:50;;;;;;;10.98;4.95;;;7.80;99.90;;;;;;5067855;28;20032;-40
2022/04/21 05:04:17;;;;;;;9.77;4.53;;;7.80;99.90;;;;;;5068298;28;20389;-41
2022/04/21 05:06:51;;;;;;;12.20;5.15;;;7.80;99.90;;;;;;5066747;28;20033;-40
2022/04/21 05:09:21;;;;;;;6.93;4.13;;;7.90;99.90;;;;;;5068392;28;20092;-40
2022/04/21 05:11:52;;;;;;;6.10;4.18;;;7.90;99.90;;;;;;5068913;28;20025;-40
2022/04/21 05:14:19;;;;;;;11.77;4.25;;;7.90;99.90;;;;;;5071428;28;20024;-41
2022/04/21 05:16:44;;;;;;;6.22;3.72;;;7.90;99.90;;;;;;5072467;28;20024;-41
2022/04/21 05:19:11;;;;;;;6.15;3.97;;;7.80;99.90;;;;;;5072441;28;20482;-41
2022/04/21 05:21:38;;;;;;;6.93;4.07;;;7.80;99.90;;;;;;5076535;28;20048;-40
2022/04/21 05:24:05;;;;;;;8.98;4.00;;;7.80;99.90;;;;;;5088365;28;20034;-41
2022/04/21 05:26:32;;;;;;;10.05;4.78;;;7.90;99.90;;;;;;5092648;28;20020;-41
2022/04/21 05:28:59;;;;;;;10.57;4.82;;;7.90;99.90;;;;;;5092569;28;20017;-42
2022/04/21 05:31:26;;;;;;;7.60;3.80;;;7.80;99.90;;;;;;5072745;28;20028;-41
2022/04/21 05:33:52;;;;;;;10.02;4.50;;;7.80;99.90;;;;;;5059826;28;20017;-43
2022/04/21 05:36:19;;;;;;;6.20;4.60;;;7.90;99.90;;;;;;5061897;28;20035;-43
2022/04/21 05:38:46;;;;;;;7.35;4.32;;;7.90;99.90;;;;;;5053492;28;20029;-41
2022/04/21 05:41:13;;;;;;;7.30;4.65;;;7.90;99.90;;;;;;5061838;28;20029;-40
2022/04/21 05:43:44;;;;;;;10.95;4.20;;;7.90;99.90;;;;;;5064237;28;20337;-40
2022/04/21 05:46:12;;;;;;;9.13;4.07;;;7.90;99.90;;;;;;5064358;28;20400;-41
2022/04/21 05:48:38;;;;;;;6.80;4.53;;;7.80;99.90;;;;;;5066547;28;20104;-42
2022/04/21 05:51:05;;;;;;;12.43;4.75;;;7.90;99.90;;;;;;5079398;28;20547;-48
2022/04/21 05:53:36;;;;;;;10.55;4.65;;;7.90;99.90;;;;;;5085666;28;20384;-42
2022/04/21 05:56:04;;;;;;;7.60;4.28;;;7.90;99.90;;;;;;5080926;28;20143;-42
2022/04/21 05:58:29;;;;;;;7.63;4.65;;;8.00;99.90;;;;;;5085935;28;20020;-43
2022/04/21 06:00:55;;;;;;;7.70;4.63;;;8.00;99.90;;;;;;5073342;28;20046;-43
2022/04/21 06:03:22;;;;;;;8.65;4.20;;;8.00;99.90;;;;;;5085890;28;20024;-42
2022/04/21 06:05:47;;;;;;;6.07;4.22;;;8.00;99.90;;;;;;5078337;28;20470;-41
2022/04/21 06:08:13;;;;;;;6.82;3.58;;;8.20;99.90;;;;;;5079473;28;20025;-41
2022/04/21 06:10:38;;;;;;;6.68;4.65;;;8.30;99.90;;;;;;5070132;28;20031;-44
2022/04/21 06:13:04;;;;;;;7.75;3.95;;;8.30;99.90;;;;;;5060474;28;20023;-41
2022/04/21 06:15:33;;;;;;;7.22;3.80;;;8.40;99.90;;;;;;5061132;28;20025;-40
2022/04/21 06:17:59;;;;;;;6.10;3.60;;;8.50;99.90;;;;;;5054317;28;20028;-42
2022/04/21 06:20:26;;;;;;;6.85;4.30;;;8.50;99.90;;;;;;5049610;28;20059;-40
2022/04/21 06:22:52;;;;;;;6.60;4.07;;;8.50;99.90;;;;;;5080899;28;20693;-40
2022/04/21 06:25:18;;;;;;;9.52;4.45;;;8.50;99.90;;;;;;5079937;28;20029;-42
2022/04/21 06:27:43;;;;;;;13.25;4.88;;;8.60;99.90;;;;;;5064178;28;20386;-40
2022/04/21 06:30:09;;;;;;;10.32;4.15;;;8.60;99.90;;;;;;5070247;28;20023;-39
2022/04/21 06:32:34;;;;;;;6.75;4.10;;;8.60;99.90;;;;;;5069491;28;20020;-42
2022/04/21 06:35:00;;;;;;;8.55;5.07;;;8.70;99.90;;;;;;5069841;28;20024;-42
2022/04/21 06:37:25;;;;;;;15.23;4.85;;;8.80;99.90;;;;;;5069648;28;20029;-40
2022/04/21 06:39:51;;;;;;;12.98;4.10;;;8.90;99.90;;;;;;5059355;28;20025;-41
2022/04/21 06:42:17;;;;;;;10.18;4.43;;;8.80;99.90;;;;;;5049281;28;20064;-41
2022/04/21 06:50:11;;;;;;;8.88;4.18;;;8.80;99.90;;;;;;5049491;28;20059;-43
2022/04/21 06:52:37;;;;;;;8.38;4.07;;;8.80;99.90;;;;;;5081057;28;20473;-41
2022/04/21 06:55:03;;;;;;;7.93;4.35;;;8.90;99.90;;;;;;5090066;28;20027;-41
2022/04/21 06:57:29;;;;;;;7.80;4.60;;;9.00;99.90;;;;;;5089292;28;20574;-41
2022/04/21 06:59:54;;;;;;;7.93;4.30;;;9.10;99.90;;;;;;5088573;28;20035;-48
2022/04/21 07:02:37;;;;;;;6.40;3.97;;;9.20;99.90;;;;;;5069204;28;20112;-41
2022/04/21 07:05:08;;;;;;;7.78;3.78;;;9.30;99.90;;;;;;5059768;28;20012;-40
2022/04/21 07:07:33;;;;;;;8.30;4.28;;;9.40;99.90;;;;;;5056401;28;20025;-41
2022/04/21 07:10:00;;;;;;;9.23;4.55;;;9.50;99.90;;;;;;5061075;28;20056;-40
2022/04/21 07:12:30;;;;;;;7.95;4.90;;;9.60;99.90;;;;;;5058569;28;20044;-43
2022/04/21 07:14:57;;;;;;;7.47;4.57;;;9.70;99.90;;;;;;5059151;28;20025;-41
2022/04/21 07:17:23;;;;;;;10.40;5.00;;;9.70;99.90;;;;;;5056058;28;20471;-41
2022/04/21 07:19:49;;;;;;;8.18;4.07;;;9.80;99.90;;;;;;5057942;28;20045;-41
2022/04/21 07:22:14;;;;;;;8.25;4.18;;;9.90;99.90;;;;;;5060917;28;20021;-42
2022/04/21 07:24:40;;;;;;;10.30;4.55;;;9.90;99.90;;;;;;5056714;28;20546;-42
2022/04/21 07:27:05;;;;;;;10.40;5.00;;;9.90;99.90;;;;;;5069195;28;20025;-41
2022/04/21 07:29:31;;;;;;;10.77;4.13;;;9.90;99.90;;;;;;5068862;28;20562;-42
2022/04/21 07:31:56;;;;;;;6.70;4.80;;;9.90;99.90;;;;;;5068753;28;20116;-42
2022/04/21 07:34:23;;;;;;;10.13;4.68;;;9.90;99.90;;;;;;5067857;28;20028;-43
2022/04/21 07:36:49;;;;;;;6.63;4.35;;;9.80;99.90;;;;;;5068844;28;20017;-43
2022/04/21 07:39:15;;;;;;;11.63;4.63;;;9.80;99.90;;;;;;5068569;28;20107;-42
2022/04/21 07:41:41;;;;;;;10.35;4.63;;;9.70;99.90;;;;;;5068071;28;20103;-41
2022/04/21 07:44:07;;;;;;;7.53;4.75;;;9.70;99.90;;;;;;5069088;28;20027;-42
2022/04/21 07:46:33;;;;;;;11.52;4.78;;;9.80;99.90;;;;;;5068806;28;20024;-41
2022/04/21 07:51:42;;;;;;;9.35;4.93;;;9.80;99.90;;;;;;5073256;28;20120;-40
2022/04/21 07:54:08;;;;;;;9.90;4.38;;;9.90;99.90;;;;;;5085333;28;20103;-42
2022/04/21 07:56:34;;;;;;;6.00;4.45;;;10.00;99.90;;;;;;5088699;28;20470;-42
2022/04/21 07:59:00;;;;;;;7.20;4.75;;;10.10;99.90;;;;;;5088779;28;20020;-42
2022/04/21 08:01:26;;;;;;;8.48;4.65;;;10.20;99.90;;;;;;5078375;28;20441;-41
2022/04/21 08:03:51;;;;;;;8.43;4.70;;;10.20;99.90;;;;;;5057194;28;20016;-42
2022/04/21 08:06:17;;;;;;;9.38;4.43;;;10.30;99.90;;;;;;5058237;28;20070;-42
2022/04/21 08:08:42;;;;;;;6.35;4.15;;;10.60;99.90;;;;;;5058906;28;20444;-41
2022/04/21 08:11:08;;;;;;;7.65;4.03;;;11.00;99.90;;;;;;5046898;28;20021;-42
2022/04/21 08:13:34;;;;;;;8.63;4.63;;;11.60;99.90;;;;;;5048188;28;20021;-40
2022/04/21 08:16:00;;;;;;;8.90;4.45;;;12.00;99.90;;;;;;5072129;28;20043;-42
2022/04/21 08:18:26;;;;;;;8.68;4.20;;;12.50;99.90;;;;;;5069587;28;20482;-41
2022/04/21 08:20:57;;;;;;;7.80;4.10;;;12.50;99.40;;;;;;5064337;28;20493;-42
2022/04/21 08:23:24;;;;;;;7.45;4.93;;;12.50;99.10;;;;;;5075652;28;20468;-41
2022/04/21 08:34:05;;;;;;;9.95;5.00;;;12.10;99.10;;;;;;5059976;28;20040;-42
2022/04/21 08:36:31;;;;;;;7.50;4.35;;;12.10;98.90;;;;;;5067912;28;20024;-41
2022/04/21 08:38:56;;;;;;;7.03;4.25;;;11.80;99.90;;;;;;5068198;28;20032;-42
2022/04/21 08:41:26;;;;;;;11.93;5.18;;;11.70;99.90;;;;;;5067919;28;20021;-42
2022/04/21 08:43:54;;;;;;;9.20;4.97;;;11.60;99.90;;;;;;5067648;28;20013;-39
2022/04/21 08:46:24;;;;;;;9.15;5.00;;;11.50;99.90;;;;;;5067689;28;20032;-39
2022/04/21 08:48:52;;;;;;;11.57;5.20;;;11.50;99.90;;;;;;5068346;28;20025;-40
2022/04/21 08:51:22;;;;;;;13.25;5.65;;;11.40;99.90;;;;;;5073557;28;20771;-40
2022/04/21 08:53:49;;;;;;;8.45;5.47;;;11.40;99.90;;;;;;5081175;28;20024;-41
2022/04/21 08:56:15;;;;;;;9.65;5.00;;;11.50;99.90;;;;;;5088036;28;20028;-40
2022/04/21 08:58:40;;;;;;;8.52;4.57;;;11.40;99.90;;;;;;5088601;28;20487;-40
2022/04/21 09:01:08;;;;;;;10.10;4.07;;;11.40;99.90;;;;;;5059498;28;20029;-38
2022/04/21 09:03:35;;;;;;;7.90;4.60;;;11.50;99.90;;;;;;5066843;28;20466;-40
2022/04/21 09:06:00;;;;;;;9.35;5.18;;;11.70;99.90;;;;;;5045755;28;20043;-38
2022/04/21 09:08:27;;;;;;;10.93;5.05;;;11.60;99.90;;;;;;5046286;28;20025;-38
2022/04/21 09:11:10;;;;;;;8.23;4.57;;;11.80;99.90;;;;;;5047208;28;20029;-38
2022/04/21 09:13:37;;;;;;;8.02;4.93;;;11.90;99.90;;;;;;5048464;28;20029;-38
2022/04/21 09:16:05;;;;;;;9.30;4.47;;;11.90;99.90;;;;;;5067058;28;20033;-38
2022/04/21 09:18:38;;;;;;;6.68;5.05;;;11.90;99.90;;;;;;5067023;28;20331;-39
2022/04/21 09:21:08;;;;;;;8.88;4.43;;;12.00;99.90;;;;;;5060938;28;20028;-39
2022/04/21 09:23:34;;;;;;;10.68;5.10;;;12.00;99.90;;;;;;5069061;28;20028;-38
2022/04/21 09:26:07;;;;;;;10.30;5.32;;;12.00;99.90;;;;;;5058709;28;20033;-40
2022/04/21 09:28:33;;;;;;;10.15;5.18;;;12.10;99.90;;;;;;5065664;28;20362;-39
2022/04/21 09:31:00;;;;;;;11.15;4.80;;;12.10;99.90;;;;;;5057448;28;20028;-40
2022/04/21 09:33:30;;;;;;;9.77;6.10;;;12.10;99.90;;;;;;5056189;28;20028;-44
2022/04/21 09:36:01;;;;;;;6.88;4.47;;;12.20;99.90;;;;;;5059060;28;20036;-39
2022/04/21 09:38:27;;;;;;;7.28;4.88;;;12.30;99.90;;;;;;5067647;28;20036;-39
2022/04/21 09:40:53;;;;;;;8.80;4.80;;;12.30;99.90;;;;;;5068718;28;20028;-40
2022/04/21 09:43:27;;;;;;;10.05;4.57;;;12.30;99.90;;;;;;5055572;28;20039;-39
2022/04/21 09:46:07;;;;;;;10.93;5.35;;;12.40;99.90;;;;;;5048731;28;20013;-39
2022/04/21 09:48:33;;;;;;;8.95;4.88;;;12.40;99.90;;;;;;5047441;28;20608;-39
2022/04/21 09:51:12;;;;;;;12.25;5.35;;;12.40;99.90;;;;;;5061707;28;20028;-39
2022/04/21 09:53:56;;;;;;;9.63;5.50;;;12.50;99.90;;;;;;5072167;28;20513;-39
2022/04/21 09:56:36;;;;;;;8.23;5.07;;;12.50;99.90;;;;;;5087603;28;20076;-39
2022/04/21 09:59:09;;;;;;;7.45;4.43;;;12.60;99.90;;;;;;5060153;28;20028;-39
2022/04/21 10:01:39;;;;;;;13.10;5.85;;;12.50;99.90;;;;;;5071799;28;20516;-39
2022/04/21 10:04:54;;;;;;;6.50;4.53;;;12.60;99.90;;;;;;5072159;28;20037;-39
2022/04/21 10:07:20;;;;;;;10.73;5.32;;;12.50;99.90;;;;;;5071850;28;20017;-39
2022/04/21 10:09:46;;;;;;;10.38;5.55;;;12.50;99.90;;;;;;5072173;28;20112;-39
2022/04/21 10:12:12;;;;;;;14.90;5.75;;;12.50;99.90;;;;;;5071279;28;20048;-39
2022/04/21 10:14:38;;;;;;;8.15;4.75;;;12.40;99.90;;;;;;5071732;28;20441;-39
2022/04/21 10:17:09;;;;;;;12.13;5.85;;;12.40;99.90;;;;;;5065143;28;20099;-40
2022/04/21 10:19:34;;;;;;;8.85;5.25;;;12.40;99.90;;;;;;5062133;28;20354;-39
2022/04/21 10:22:03;;;;;;;9.73;5.40;;;12.40;99.90;;;;;;5060646;28;20031;-40
2022/04/21 10:24:34;;;;;;;10.52;5.47;;;12.40;99.90;;;;;;5063136;28;20056;-41
2022/04/21 10:27:00;;;;;;;8.52;5.82;;;12.40;99.90;;;;;;5060105;28;20025;-41
2022/04/21 10:29:27;;;;;;;10.77;4.97;;;12.40;99.90;;;;;;5056445;28;20224;-40
2022/04/21 10:32:00;;;;;;;8.15;4.30;;;12.40;99.90;;;;;;5057052;28;20085;-50
2022/04/21 10:34:31;;;;;;;7.72;4.82;;;12.40;99.90;;;;;;5060328;28;20083;-48
2022/04/21 10:37:20;;;;;;;10.35;4.75;;;12.40;99.90;;;;;;5058019;28;20013;-49
2022/04/21 10:40:07;;;;;;;9.13;5.32;;;12.40;99.90;;;;;;5056782;28;21064;-48
2022/04/21 10:42:51;;;;;;;7.68;4.82;;;12.50;99.90;;;;;;5064580;28;20108;-48
2022/04/21 10:45:28;;;;;;;13.15;5.60;;;12.50;99.90;;;;;;5070670;28;20035;-48
2022/04/21 10:48:08;;;;;;;9.27;5.15;;;12.50;99.90;;;;;;5070795;28;20036;-48
2022/04/21 10:50:35;;;;;;;9.83;4.57;;;12.40;99.90;;;;;;5073088;28;20123;-48
2022/04/21 10:58:35;;;;;;;8.63;4.30;;;12.70;99.90;;;;;;5056435;28;20090;-48
2022/04/21 11:01:08;;;;;;;11.43;5.95;;;12.70;99.90;;;;;;5067510;28;20470;-47
2022/04/21 11:03:33;;;;;;;7.72;5.13;;;12.80;99.90;;;;;;5055171;28;20547;-47
2022/04/21 11:06:09;;;;;;;10.70;5.45;;;13.00;99.90;;;;;;5064031;28;20028;-47
2022/04/21 11:08:35;;;;;;;8.95;4.68;;;13.00;99.90;;;;;;5069012;28;20036;-48
2022/04/21 11:11:02;;;;;;;7.22;4.38;;;13.00;99.90;;;;;;5070409;28;20028;-49
2022/04/21 11:13:50;;;;;;;10.70;4.78;;;13.00;99.90;;;;;;5069936;28;20169;-51
2022/04/21 11:16:40;;;;;;;8.23;5.18;;;13.00;99.90;;;;;;5070102;28;20550;-51
2022/04/21 11:19:28;;;;;;;113.68;71.97;;;13.10;99.90;;;;;;5070454;28;20040;-49
2022/04/21 11:25:16;;;;;;;11.40;6.07;;;13.20;99.70;;;;;;5059503;28;20044;-51
2022/04/21 11:27:44;;;;;;;9.95;5.22;;;13.30;99.80;;;;;;5060972;28;20020;-47
2022/04/21 11:30:12;;;;;;;9.65;5.18;;;13.30;99.60;;;;;;5059783;28;20028;-49
2022/04/21 11:32:38;;;;;;;6.82;5.03;;;13.40;99.60;;;;;;5058377;28;20036;-48
2022/04/21 11:35:09;;;;;;;11.30;4.75;;;13.50;99.40;;;;;;5055243;28;20035;-50
2022/04/21 11:37:45;;;;;;;11.70;5.72;;;13.60;99.00;;;;;;5050531;28;20020;-47
2022/04/21 11:40:17;;;;;;;7.65;4.20;;;13.60;99.70;;;;;;5050550;28;20029;-46
2022/04/21 11:42:43;;;;;;;11.98;5.40;;;13.60;98.80;;;;;;5048911;28;20025;-46
2022/04/21 11:45:08;;;;;;;12.00;4.60;;;13.70;99.20;;;;;;5050501;28;20425;-46
2022/04/21 11:47:34;;;;;;;10.50;4.50;;;13.70;98.50;;;;;;5050911;28;20021;-46
2022/04/21 11:50:00;;;;;;;7.28;5.05;;;13.60;98.50;;;;;;5050574;28;20563;-46
2022/04/21 11:52:27;;;;;;;8.00;5.00;;;13.70;98.30;;;;;;5067821;28;20100;-48
2022/04/21 11:55:04;;;;;;;10.10;4.35;;;13.60;98.40;;;;;;5084864;28;20099;-49
2022/04/21 11:57:45;;;;;;;9.38;4.80;;;13.60;98.30;;;;;;5086000;28;20090;-48
2022/04/21 12:00:12;;;;;;;10.13;5.05;;;13.60;98.50;;;;;;5057270;28;20044;-39
2022/04/21 12:08:07;;;;;;;8.88;4.70;;;13.50;98.00;;;;;;5059048;28;20106;-39
2022/04/21 12:10:35;;;;;;;8.40;5.15;;;13.40;98.80;;;;;;5069048;28;20424;-39
2022/04/21 12:13:02;;;;;;;10.63;4.40;;;13.30;98.90;;;;;;5069180;28;20021;-46
2022/04/21 12:15:29;;;;;;;11.70;5.97;;;13.30;99.20;;;;;;5069409;28;20093;-48
2022/04/21 12:18:04;;;;;;;6.55;4.63;;;13.30;98.50;;;;;;5069189;28;20017;-46
2022/04/21 12:20:30;;;;;;;12.18;4.85;;;13.10;99.30;;;;;;5065390;28;20028;-49
2022/04/21 12:22:57;;;;;;;6.97;4.50;;;13.20;99.60;;;;;;5071627;28;20429;-48
2022/04/21 12:25:32;;;;;;;8.55;4.93;;;13.30;99.10;;;;;;5087579;28;20035;-47
2022/04/21 12:28:02;;;;;;;9.57;4.90;;;13.40;99.50;;;;;;5089347;28;20046;-47
2022/04/21 12:30:28;;;;;;;8.43;5.30;;;13.40;99.20;;;;;;5078537;28;20067;-46
2022/04/21 12:32:53;;;;;;;11.18;5.88;;;13.30;99.60;;;;;;5057542;28;20025;-45
2022/04/21 12:35:46;;;;;;;15.23;5.78;;;13.30;99.60;;;;;;5056961;28;20048;-47
2022/04/21 12:41:01;;;;;;;14.15;4.95;;;13.40;99.10;;;;;;5051749;28;20111;-49
2022/04/21 12:43:30;;;;;;;8.10;4.95;;;13.50;99.00;;;;;;5055600;28;20377;-46
2022/04/21 12:45:57;;;;;;;10.85;4.60;;;13.40;99.40;;;;;;5046791;28;20471;-47
2022/04/21 12:48:27;;;;;;;9.50;5.00;;;13.50;98.70;;;;;;5058265;28;20060;-46
2022/04/21 12:50:53;;;;;;;9.15;4.93;;;13.40;99.10;;;;;;5056513;28;20470;-47
2022/04/21 12:53:29;;;;;;;8.68;5.15;;;13.40;98.40;;;;;;5074393;28;20024;-45
2022/04/21 12:55:55;;;;;;;10.02;5.53;;;13.50;98.40;;;;;;5068383;28;20026;-46
2022/04/21 12:58:31;;;;;;;8.82;5.43;;;13.40;98.30;;;;;;5068625;28;20028;-46
2022/04/21 13:01:00;;;;;;;8.50;5.45;;;13.40;98.10;;;;;;5056380;28;20033;-48
2022/04/21 13:03:27;;;;;;;10.40;5.63;;;13.40;97.90;;;;;;5068189;28;20551;-47
2022/04/21 13:05:55;;;;;;;8.52;4.82;;;13.40;98.40;;;;;;5068314;28;20039;-47
2022/04/21 13:08:22;;;;;;;7.53;4.78;;;13.60;98.40;;;;;;5068540;28;20051;-46
2022/04/21 13:10:49;;;;;;;8.23;5.13;;;13.70;98.00;;;;;;5068530;28;20021;-47
2022/04/21 13:13:14;;;;;;;9.70;6.28;;;13.80;97.50;;;;;;5068281;28;20032;-47
2022/04/21 13:15:40;;;;;;;13.07;6.07;;;13.90;97.50;;;;;;5069038;28;20028;-45
2022/04/21 13:18:05;;;;;;;10.80;7.00;;;13.80;96.70;;;;;;5059708;28;20025;-47
2022/04/21 13:23:16;;;;;;;12.63;5.60;;;13.80;97.00;;;;;;5064759;28;20532;-46
2022/04/21 13:25:42;;;;;;;6.72;4.85;;;13.80;97.00;;;;;;5058072;28;20029;-46
2022/04/21 13:28:08;;;;;;;10.20;5.20;;;13.70;97.20;;;;;;5059398;28;20070;-45
2022/04/21 13:30:34;;;;;;;6.75;5.32;;;13.80;97.10;;;;;;5058685;28;20017;-46
2022/04/21 13:35:43;;;;;;;10.70;4.85;;;13.90;97.20;;;;;;5052684;28;20048;-46
2022/04/21 13:38:09;;;;;;;8.40;5.03;;;13.80;97.10;;;;;;5052592;28;20021;-45
2022/04/21 13:40:34;;;;;;;7.47;5.22;;;13.80;97.50;;;;;;5051441;28;20067;-46
2022/04/21 13:43:00;;;;;;;8.90;5.65;;;13.70;97.50;;;;;;5050087;28;20025;-46
2022/04/21 13:45:25;;;;;;;8.55;4.80;;;13.60;97.60;;;;;;5050740;28;20043;-46
2022/04/21 13:47:51;;;;;;;9.80;5.30;;;13.60;98.00;;;;;;5053258;28;20025;-48
2022/04/21 13:50:17;;;;;;;8.30;4.97;;;13.40;98.80;;;;;;5050235;28;20378;-47
2022/04/21 13:52:43;;;;;;;9.32;5.40;;;13.40;98.70;;;;;;5062725;28;20033;-46
2022/04/21 13:55:10;;;;;;;7.03;4.88;;;13.40;98.90;;;;;;5061855;28;20461;-49